sensor_id;sensor_type;location;lat;lon;timestamp;pressure;altitude;pressure_sealevel;temperature;humidity
22830;BME280;11581;51.250;6.778;2022-10-16T00:02:00;100735.56;;;17.67;67.33
22830;BME280;11581;51.250;6.778;2022-10-16T00:04:27;100732.84;;;17.67;67.13
22830;BME280;11581;51.250;6.778;2022-10-16T00:06:54;100726.00;;;17.64;66.88
22830;BME280;11581;51.250;6.778;2022-10-16T00:09:21;100735.09;;;17.63;66.76
22830;BME280;11581;51.250;6.778;2022-10-16T00:11:48;100737.16;;;17.61;67.02
22830;BME280;11581;51.250;6.778;2022-10-16T00:14:16;100720.28;;;17.53;67.06
22830;BME280;11581;51.250;6.778;2022-10-16T00:16:44;100735.88;;;17.57;67.06
22830;BME280;11581;51.250;6.778;2022-10-16T00:19:13;100747.88;;;17.55;66.82
22830;BME280;11581;51.250;6.778;2022-10-16T00:21:41;100746.22;;;17.54;67.01
22830;BME280;11581;51.250;6.778;2022-10-16T00:24:09;100751.16;;;17.50;66.91
22830;BME280;11581;51.250;6.778;2022-10-16T00:26:38;100756.72;;;17.49;66.88
22830;BME280;11581;51.250;6.778;2022-10-16T00:29:06;100749.03;;;17.46;66.95
22830;BME280;11581;51.250;6.778;2022-10-16T00:31:33;100746.75;;;17.43;67.07
22830;BME280;11581;51.250;6.778;2022-10-16T00:34:01;100743.34;;;17.41;67.04
22830;BME280;11581;51.250;6.778;2022-10-16T00:36:29;100735.66;;;17.38;67.06
22830;BME280;11581;51.250;6.778;2022-10-16T00:38:57;100738.53;;;17.36;67.06
22830;BME280;11581;51.250;6.778;2022-10-16T00:41:27;100732.69;;;17.33;67.14
22830;BME280;11581;51.250;6.778;2022-10-16T00:43:56;100745.53;;;17.31;67.06
22830;BME280;11581;51.250;6.778;2022-10-16T00:46:25;100691.34;;;17.05;67.18
22830;BME280;11581;51.250;6.778;2022-10-16T00:48:56;100715.09;;;17.16;66.99
22830;BME280;11581;51.250;6.778;2022-10-16T00:51:30;100722.78;;;17.19;67.20
22830;BME280;11581;51.250;6.778;2022-10-16T00:53:59;100677.06;;;16.90;67.22
22830;BME280;11581;51.250;6.778;2022-10-16T00:56:27;100725.09;;;17.22;67.37
22830;BME280;11581;51.250;6.778;2022-10-16T00:58:54;100658.72;;;16.79;67.20
22830;BME280;11581;51.250;6.778;2022-10-16T01:01:21;100727.16;;;17.20;67.35
22830;BME280;11581;51.250;6.778;2022-10-16T01:03:48;100728.19;;;17.19;67.28
22830;BME280;11581;51.250;6.778;2022-10-16T01:06:22;100706.66;;;17.04;67.33
22830;BME280;11581;51.250;6.778;2022-10-16T01:09:02;100726.91;;;17.15;67.35
22830;BME280;11581;51.250;6.778;2022-10-16T01:11:35;100729.59;;;17.15;67.31
22830;BME280;11581;51.250;6.778;2022-10-16T01:14:11;100732.47;;;17.13;67.34
22830;BME280;11581;51.250;6.778;2022-10-16T01:16:47;100745.94;;;17.13;67.27
22830;BME280;11581;51.250;6.778;2022-10-16T01:19:19;100684.34;;;16.75;67.35
22830;BME280;11581;51.250;6.778;2022-10-16T01:21:53;100697.72;;;16.83;67.32
22830;BME280;11581;51.250;6.778;2022-10-16T01:24:31;100749.88;;;17.11;67.40
22830;BME280;11581;51.250;6.778;2022-10-16T01:27:12;100742.78;;;17.10;67.42
22830;BME280;11581;51.250;6.778;2022-10-16T01:29:45;100749.03;;;17.10;67.25
22830;BME280;11581;51.250;6.778;2022-10-16T01:32:19;100729.44;;;17.02;67.43
22830;BME280;11581;51.250;6.778;2022-10-16T01:34:50;100749.41;;;17.07;67.60
22830;BME280;11581;51.250;6.778;2022-10-16T01:37:29;100739.84;;;17.05;67.68
22830;BME280;11581;51.250;6.778;2022-10-16T01:40:00;100743.53;;;17.04;67.85
22830;BME280;11581;51.250;6.778;2022-10-16T01:42:33;100719.97;;;16.91;67.83
22830;BME280;11581;51.250;6.778;2022-10-16T01:45:02;100738.53;;;17.01;67.80
22830;BME280;11581;51.250;6.778;2022-10-16T01:47:33;100740.13;;;16.95;67.99
22830;BME280;11581;51.250;6.778;2022-10-16T01:50:03;100740.59;;;16.99;68.09
22830;BME280;11581;51.250;6.778;2022-10-16T01:52:33;100722.19;;;16.88;68.03
22830;BME280;11581;51.250;6.778;2022-10-16T01:55:02;100751.75;;;16.96;68.21
22830;BME280;11581;51.250;6.778;2022-10-16T01:57:33;100728.38;;;16.82;68.29
22830;BME280;11581;51.250;6.778;2022-10-16T02:00:07;100750.09;;;16.95;68.44
22830;BME280;11581;51.250;6.778;2022-10-16T02:02:40;100734.00;;;16.87;68.50
22830;BME280;11581;51.250;6.778;2022-10-16T02:05:12;100745.69;;;16.94;68.45
22830;BME280;11581;51.250;6.778;2022-10-16T02:07:41;100738.28;;;16.96;68.32
22830;BME280;11581;51.250;6.778;2022-10-16T02:10:10;100736.63;;;16.95;68.46
22830;BME280;11581;51.250;6.778;2022-10-16T02:12:40;100744.69;;;16.95;68.41
22830;BME280;11581;51.250;6.778;2022-10-16T02:15:09;100757.13;;;16.96;68.43
22830;BME280;11581;51.250;6.778;2022-10-16T02:17:36;100758.78;;;16.97;68.43
22830;BME280;11581;51.250;6.778;2022-10-16T02:20:03;100762.34;;;16.97;68.36
22830;BME280;11581;51.250;6.778;2022-10-16T02:22:33;100755.91;;;16.98;68.39
22830;BME280;11581;51.250;6.778;2022-10-16T02:25:04;100763.81;;;17.00;68.33
22830;BME280;11581;51.250;6.778;2022-10-16T02:27:37;100754.69;;;17.01;68.20
22830;BME280;11581;51.250;6.778;2022-10-16T02:30:11;100759.88;;;17.02;68.12
22830;BME280;11581;51.250;6.778;2022-10-16T02:32:42;100770.47;;;17.04;68.24
22830;BME280;11581;51.250;6.778;2022-10-16T02:35:11;100760.47;;;16.98;68.28
22830;BME280;11581;51.250;6.778;2022-10-16T02:37:40;100766.78;;;17.05;68.11
22830;BME280;11581;51.250;6.778;2022-10-16T02:40:08;100771.31;;;17.04;68.23
22830;BME280;11581;51.250;6.778;2022-10-16T02:42:38;100772.19;;;17.05;68.11
22830;BME280;11581;51.250;6.778;2022-10-16T02:45:09;100761.13;;;17.00;68.11
22830;BME280;11581;51.250;6.778;2022-10-16T02:47:37;100768.44;;;17.06;67.97
22830;BME280;11581;51.250;6.778;2022-10-16T02:50:04;100763.06;;;17.06;67.96
22830;BME280;11581;51.250;6.778;2022-10-16T02:52:32;100766.41;;;17.08;67.90
22830;BME280;11581;51.250;6.778;2022-10-16T02:54:59;100686.25;;;16.60;68.01
22830;BME280;11581;51.250;6.778;2022-10-16T02:57:26;100760.06;;;17.01;67.92
22830;BME280;11581;51.250;6.778;2022-10-16T02:59:53;100774.69;;;17.06;67.69
22830;BME280;11581;51.250;6.778;2022-10-16T03:02:21;100765.56;;;17.07;67.60
22830;BME280;11581;51.250;6.778;2022-10-16T03:04:49;100732.16;;;16.87;67.56
22830;BME280;11581;51.250;6.778;2022-10-16T03:07:16;100674.63;;;16.45;67.39
22830;BME280;11581;51.250;6.778;2022-10-16T03:09:43;100632.66;;;16.21;67.22
22830;BME280;11581;51.250;6.778;2022-10-16T03:12:09;100771.97;;;17.06;67.13
22830;BME280;11581;51.250;6.778;2022-10-16T03:14:38;100758.69;;;17.05;67.06
22830;BME280;11581;51.250;6.778;2022-10-16T03:17:06;100695.41;;;16.65;67.12
22830;BME280;11581;51.250;6.778;2022-10-16T03:19:34;100760.53;;;17.04;66.82
22830;BME280;11581;51.250;6.778;2022-10-16T03:22:02;100758.03;;;17.03;66.99
22830;BME280;11581;51.250;6.778;2022-10-16T03:24:29;100769.66;;;17.03;67.01
22830;BME280;11581;51.250;6.778;2022-10-16T03:26:56;100767.97;;;17.02;66.95
22830;BME280;11581;51.250;6.778;2022-10-16T03:29:24;100699.41;;;16.69;66.83
22830;BME280;11581;51.250;6.778;2022-10-16T03:31:53;100748.75;;;16.91;66.75
22830;BME280;11581;51.250;6.778;2022-10-16T03:34:20;100767.34;;;17.00;66.70
22830;BME280;11581;51.250;6.778;2022-10-16T03:36:48;100774.59;;;17.00;66.66
22830;BME280;11581;51.250;6.778;2022-10-16T03:39:15;100777.47;;;16.98;66.96
22830;BME280;11581;51.250;6.778;2022-10-16T03:41:42;100777.66;;;16.97;66.73
22830;BME280;11581;51.250;6.778;2022-10-16T03:44:09;100773.28;;;16.96;66.82
22830;BME280;11581;51.250;6.778;2022-10-16T03:46:36;100777.03;;;16.95;66.86
22830;BME280;11581;51.250;6.778;2022-10-16T03:49:04;100780.91;;;16.92;66.74
22830;BME280;11581;51.250;6.778;2022-10-16T03:51:32;100782.13;;;16.90;66.77
22830;BME280;11581;51.250;6.778;2022-10-16T03:54:01;100756.06;;;16.76;66.66
22830;BME280;11581;51.250;6.778;2022-10-16T03:56:29;100785.56;;;16.84;66.61
22830;BME280;11581;51.250;6.778;2022-10-16T03:58:56;100784.94;;;16.82;66.66
22830;BME280;11581;51.250;6.778;2022-10-16T04:01:23;100778.41;;;16.76;66.72
22830;BME280;11581;51.250;6.778;2022-10-16T04:03:50;100780.66;;;16.73;66.77
22830;BME280;11581;51.250;6.778;2022-10-16T04:06:17;100783.72;;;16.70;66.81
22830;BME280;11581;51.250;6.778;2022-10-16T04:08:44;100797.75;;;16.65;66.93
22830;BME280;11581;51.250;6.778;2022-10-16T04:11:12;100802.66;;;16.62;66.95
22830;BME280;11581;51.250;6.778;2022-10-16T04:13:39;100804.03;;;16.58;67.03
22830;BME280;11581;51.250;6.778;2022-10-16T04:16:06;100787.03;;;16.43;67.02
22830;BME280;11581;51.250;6.778;2022-10-16T04:18:33;100800.59;;;16.49;67.24
22830;BME280;11581;51.250;6.778;2022-10-16T04:21:03;100809.03;;;16.46;67.23
22830;BME280;11581;51.250;6.778;2022-10-16T04:23:30;100759.09;;;16.07;67.19
22830;BME280;11581;51.250;6.778;2022-10-16T04:25:57;100822.38;;;16.40;67.23
22830;BME280;11581;51.250;6.778;2022-10-16T04:28:26;100824.41;;;16.38;67.32
22830;BME280;11581;51.250;6.778;2022-10-16T04:30:53;100841.59;;;16.37;67.50
22830;BME280;11581;51.250;6.778;2022-10-16T04:33:20;100836.38;;;16.35;67.52
22830;BME280;11581;51.250;6.778;2022-10-16T04:35:47;100849.00;;;16.35;67.56
22830;BME280;11581;51.250;6.778;2022-10-16T04:38:14;100829.50;;;16.33;67.58
22830;BME280;11581;51.250;6.778;2022-10-16T04:40:41;100833.22;;;16.32;67.49
22830;BME280;11581;51.250;6.778;2022-10-16T04:43:10;100817.06;;;16.32;67.73
22830;BME280;11581;51.250;6.778;2022-10-16T04:45:39;100797.00;;;16.20;67.72
22830;BME280;11581;51.250;6.778;2022-10-16T04:48:06;100813.53;;;16.31;67.74
22830;BME280;11581;51.250;6.778;2022-10-16T04:50:34;100834.06;;;16.32;67.64
22830;BME280;11581;51.250;6.778;2022-10-16T04:53:04;100846.66;;;16.32;67.92
22830;BME280;11581;51.250;6.778;2022-10-16T04:55:32;100691.31;;;15.37;67.62
22830;BME280;11581;51.250;6.778;2022-10-16T04:57:59;100853.91;;;16.31;67.82
22830;BME280;11581;51.250;6.778;2022-10-16T05:00:26;100850.22;;;16.32;67.65
22830;BME280;11581;51.250;6.778;2022-10-16T05:02:55;100846.41;;;16.27;67.72
22830;BME280;11581;51.250;6.778;2022-10-16T05:05:22;100780.50;;;15.86;67.73
22830;BME280;11581;51.250;6.778;2022-10-16T05:07:49;100854.56;;;16.33;67.54
22830;BME280;11581;51.250;6.778;2022-10-16T05:10:16;100859.94;;;16.33;67.70
22830;BME280;11581;51.250;6.778;2022-10-16T05:12:45;100862.63;;;16.33;67.69
22830;BME280;11581;51.250;6.778;2022-10-16T05:15:12;100860.78;;;16.34;67.70
22830;BME280;11581;51.250;6.778;2022-10-16T05:17:39;100866.19;;;16.34;67.52
22830;BME280;11581;51.250;6.778;2022-10-16T05:20:08;100874.25;;;16.34;67.65
22830;BME280;11581;51.250;6.778;2022-10-16T05:22:35;100838.16;;;16.06;67.64
22830;BME280;11581;51.250;6.778;2022-10-16T05:25:02;100853.69;;;16.18;67.59
22830;BME280;11581;51.250;6.778;2022-10-16T05:27:31;100870.13;;;16.23;67.64
22830;BME280;11581;51.250;6.778;2022-10-16T05:29:59;100889.56;;;16.33;67.74
22830;BME280;11581;51.250;6.778;2022-10-16T05:32:26;100879.63;;;16.34;67.74
22830;BME280;11581;51.250;6.778;2022-10-16T05:34:53;100876.28;;;16.32;67.83
22830;BME280;11581;51.250;6.778;2022-10-16T05:37:22;100870.66;;;16.19;67.76
22830;BME280;11581;51.250;6.778;2022-10-16T05:39:48;100893.44;;;16.31;67.75
22830;BME280;11581;51.250;6.778;2022-10-16T05:42:15;100867.13;;;16.18;67.76
22830;BME280;11581;51.250;6.778;2022-10-16T05:44:42;100884.06;;;16.27;67.75
22830;BME280;11581;51.250;6.778;2022-10-16T05:47:12;100873.03;;;16.14;67.89
22830;BME280;11581;51.250;6.778;2022-10-16T05:49:39;100897.56;;;16.19;67.84
22830;BME280;11581;51.250;6.778;2022-10-16T05:52:06;100905.13;;;16.23;67.86
22830;BME280;11581;51.250;6.778;2022-10-16T05:54:34;100887.88;;;16.10;68.05
22830;BME280;11581;51.250;6.778;2022-10-16T05:57:01;100906.31;;;16.21;68.02
22830;BME280;11581;51.250;6.778;2022-10-16T05:59:30;100889.09;;;16.07;68.19
22830;BME280;11581;51.250;6.778;2022-10-16T06:01:58;100873.25;;;15.90;68.12
22830;BME280;11581;51.250;6.778;2022-10-16T06:04:25;100932.38;;;16.20;68.21
22830;BME280;11581;51.250;6.778;2022-10-16T06:06:51;100926.16;;;16.20;68.25
22830;BME280;11581;51.250;6.778;2022-10-16T06:09:18;100920.75;;;16.20;68.33
22830;BME280;11581;51.250;6.778;2022-10-16T06:11:47;100930.53;;;16.21;68.41
22830;BME280;11581;51.250;6.778;2022-10-16T06:14:13;100698.88;;;14.80;68.47
22830;BME280;11581;51.250;6.778;2022-10-16T06:16:43;100898.59;;;15.95;68.57
22830;BME280;11581;51.250;6.778;2022-10-16T06:19:10;100778.81;;;15.31;68.54
22830;BME280;11581;51.250;6.778;2022-10-16T06:21:37;100937.91;;;16.27;68.49
22830;BME280;11581;51.250;6.778;2022-10-16T06:24:04;100937.69;;;16.28;68.65
22830;BME280;11581;51.250;6.778;2022-10-16T06:26:31;100948.75;;;16.33;68.75
22830;BME280;11581;51.250;6.778;2022-10-16T06:29:01;100943.88;;;16.37;68.76
22830;BME280;11581;51.250;6.778;2022-10-16T06:31:28;100945.19;;;16.41;68.86
22830;BME280;11581;51.250;6.778;2022-10-16T06:33:59;100913.47;;;16.28;68.63
22830;BME280;11581;51.250;6.778;2022-10-16T06:36:26;100950.16;;;16.52;68.83
22830;BME280;11581;51.250;6.778;2022-10-16T06:38:54;100801.59;;;15.74;69.10
22830;BME280;11581;51.250;6.778;2022-10-16T06:41:22;100925.19;;;16.58;69.35
22830;BME280;11581;51.250;6.778;2022-10-16T06:43:50;100940.75;;;16.70;69.60
22830;BME280;11581;51.250;6.778;2022-10-16T06:46:20;100905.31;;;16.59;69.73
22830;BME280;11581;51.250;6.778;2022-10-16T06:48:49;100984.22;;;17.19;70.53
22830;BME280;11581;51.250;6.778;2022-10-16T06:51:17;100979.56;;;17.42;69.89
22830;BME280;11581;51.250;6.778;2022-10-16T06:53:46;100954.22;;;17.51;68.87
22830;BME280;11581;51.250;6.778;2022-10-16T06:56:17;100965.63;;;17.82;68.06
22830;BME280;11581;51.250;6.778;2022-10-16T06:58:44;100924.34;;;17.67;67.83
22830;BME280;11581;51.250;6.778;2022-10-16T07:01:13;100984.84;;;18.29;67.66
22830;BME280;11581;51.250;6.778;2022-10-16T07:03:43;100986.69;;;18.43;66.49
22830;BME280;11581;51.250;6.778;2022-10-16T07:06:12;100963.28;;;18.50;66.06
22830;BME280;11581;51.250;6.778;2022-10-16T07:08:41;100960.44;;;18.58;64.74
22830;BME280;11581;51.250;6.778;2022-10-16T07:11:10;101006.72;;;18.97;64.05
22830;BME280;11581;51.250;6.778;2022-10-16T07:13:38;101011.53;;;19.02;63.20
22830;BME280;11581;51.250;6.778;2022-10-16T07:16:06;101023.84;;;19.04;63.01
22830;BME280;11581;51.250;6.778;2022-10-16T07:18:34;101029.25;;;19.04;62.84
22830;BME280;11581;51.250;6.778;2022-10-16T07:21:08;101025.91;;;19.02;62.02
22830;BME280;11581;51.250;6.778;2022-10-16T07:23:35;101034.38;;;18.99;62.40
22830;BME280;11581;51.250;6.778;2022-10-16T07:26:03;100983.59;;;18.67;62.67
22830;BME280;11581;51.250;6.778;2022-10-16T07:28:31;101034.13;;;18.94;62.91
22830;BME280;11581;51.250;6.778;2022-10-16T07:31:00;100969.78;;;18.56;63.29
22830;BME280;11581;51.250;6.778;2022-10-16T07:33:28;101041.72;;;19.05;63.72
22830;BME280;11581;51.250;6.778;2022-10-16T07:35:55;101034.00;;;19.02;63.14
22830;BME280;11581;51.250;6.778;2022-10-16T07:38:24;101030.94;;;19.12;63.34
22830;BME280;11581;51.250;6.778;2022-10-16T07:40:56;101073.63;;;19.37;62.76
22830;BME280;11581;51.250;6.778;2022-10-16T07:43:24;101055.28;;;19.60;65.32
22830;BME280;11581;51.250;6.778;2022-10-16T07:45:52;101036.44;;;19.80;66.17
22830;BME280;11581;51.250;6.778;2022-10-16T07:48:19;101060.03;;;20.40;66.23
22830;BME280;11581;51.250;6.778;2022-10-16T07:50:46;100999.03;;;20.57;66.14
22830;BME280;11581;51.250;6.778;2022-10-16T07:53:13;101045.81;;;21.43;65.26
22830;BME280;11581;51.250;6.778;2022-10-16T07:55:42;101020.88;;;21.92;62.56
22830;BME280;11581;51.250;6.778;2022-10-16T07:58:09;101025.56;;;22.60;61.57
22830;BME280;11581;51.250;6.778;2022-10-16T08:00:36;101072.66;;;23.41;58.40
22830;BME280;11581;51.250;6.778;2022-10-16T08:03:04;101051.47;;;23.67;55.74
22830;BME280;11581;51.250;6.778;2022-10-16T08:05:32;101049.06;;;23.77;53.01
22830;BME280;11581;51.250;6.778;2022-10-16T08:08:00;101080.44;;;24.05;52.19
22830;BME280;11581;51.250;6.778;2022-10-16T08:10:28;101086.56;;;24.00;51.51
22830;BME280;11581;51.250;6.778;2022-10-16T08:12:58;101076.00;;;23.85;52.08
22830;BME280;11581;51.250;6.778;2022-10-16T08:15:25;101094.66;;;24.07;53.46
22830;BME280;11581;51.250;6.778;2022-10-16T08:17:57;100927.53;;;23.29;50.24
22830;BME280;11581;51.250;6.778;2022-10-16T08:20:25;101101.13;;;24.42;51.28
22830;BME280;11581;51.250;6.778;2022-10-16T08:22:52;101105.44;;;24.49;50.05
22830;BME280;11581;51.250;6.778;2022-10-16T08:25:19;101075.63;;;24.18;49.46
22830;BME280;11581;51.250;6.778;2022-10-16T08:27:47;101112.81;;;24.31;48.84
22830;BME280;11581;51.250;6.778;2022-10-16T08:30:19;101118.72;;;24.10;47.57
22830;BME280;11581;51.250;6.778;2022-10-16T08:32:46;101068.78;;;23.55;49.13
22830;BME280;11581;51.250;6.778;2022-10-16T08:35:15;101101.72;;;23.47;48.72
22830;BME280;11581;51.250;6.778;2022-10-16T08:37:44;101126.97;;;23.29;49.30
22830;BME280;11581;51.250;6.778;2022-10-16T08:40:17;101087.91;;;22.55;48.93
22830;BME280;11581;51.250;6.778;2022-10-16T08:42:53;101121.75;;;22.59;49.68
22830;BME280;11581;51.250;6.778;2022-10-16T08:45:31;101090.13;;;22.14;50.26
22830;BME280;11581;51.250;6.778;2022-10-16T08:48:11;101013.03;;;21.45;50.70
22830;BME280;11581;51.250;6.778;2022-10-16T08:50:43;101141.16;;;21.99;52.00
22830;BME280;11581;51.250;6.778;2022-10-16T08:53:24;101160.41;;;21.78;52.56
22830;BME280;11581;51.250;6.778;2022-10-16T08:55:54;101151.41;;;21.64;53.82
22830;BME280;11581;51.250;6.778;2022-10-16T08:58:26;101117.81;;;21.26;53.92
22830;BME280;11581;51.250;6.778;2022-10-16T09:00:57;101177.31;;;21.67;53.96
22830;BME280;11581;51.250;6.778;2022-10-16T09:03:36;101177.75;;;21.77;53.55
22830;BME280;11581;51.250;6.778;2022-10-16T09:06:29;101158.72;;;21.90;53.07
22830;BME280;11581;51.250;6.778;2022-10-16T09:09:08;101164.75;;;22.05;52.98
22830;BME280;11581;51.250;6.778;2022-10-16T09:11:44;101175.38;;;22.13;52.22
22830;BME280;11581;51.250;6.778;2022-10-16T09:14:32;101172.47;;;22.21;52.25
22830;BME280;11581;51.250;6.778;2022-10-16T09:17:26;101174.94;;;22.29;52.22
22830;BME280;11581;51.250;6.778;2022-10-16T09:20:06;101160.28;;;22.30;51.89
22830;BME280;11581;51.250;6.778;2022-10-16T09:22:38;101175.31;;;22.39;52.85
22830;BME280;11581;51.250;6.778;2022-10-16T09:25:11;101035.97;;;21.55;50.80
22830;BME280;11581;51.250;6.778;2022-10-16T09:27:39;101187.25;;;22.38;51.96
22830;BME280;11581;51.250;6.778;2022-10-16T09:30:12;101065.19;;;21.60;50.81
22830;BME280;11581;51.250;6.778;2022-10-16T09:32:41;101184.56;;;22.25;51.15
22830;BME280;11581;51.250;6.778;2022-10-16T09:35:14;101189.41;;;22.17;51.42
22830;BME280;11581;51.250;6.778;2022-10-16T09:37:42;101139.94;;;21.82;51.45
22830;BME280;11581;51.250;6.778;2022-10-16T09:40:13;101190.03;;;22.06;51.55
22830;BME280;11581;51.250;6.778;2022-10-16T09:42:40;101197.56;;;22.04;52.71
22830;BME280;11581;51.250;6.778;2022-10-16T09:45:20;101193.16;;;22.02;51.13
22830;BME280;11581;51.250;6.778;2022-10-16T09:47:49;101185.44;;;22.06;52.05
22830;BME280;11581;51.250;6.778;2022-10-16T09:50:22;101182.31;;;22.09;51.87
22830;BME280;11581;51.250;6.778;2022-10-16T09:52:50;101189.19;;;22.18;53.44
22830;BME280;11581;51.250;6.778;2022-10-16T09:55:18;101128.19;;;22.01;54.46
22830;BME280;11581;51.250;6.778;2022-10-16T09:57:49;101184.41;;;22.77;53.18
22830;BME280;11581;51.250;6.778;2022-10-16T10:00:17;101139.66;;;23.11;54.20
22830;BME280;11581;51.250;6.778;2022-10-16T10:02:44;101155.25;;;23.77;54.07
22830;BME280;11581;51.250;6.778;2022-10-16T10:05:21;101182.94;;;24.60;49.12
22830;BME280;11581;51.250;6.778;2022-10-16T10:07:54;101180.94;;;25.14;47.20
22830;BME280;11581;51.250;6.778;2022-10-16T10:10:23;101149.59;;;25.35;46.61
22830;BME280;11581;51.250;6.778;2022-10-16T10:12:52;101108.34;;;25.25;45.93
22830;BME280;11581;51.250;6.778;2022-10-16T10:15:19;101154.63;;;25.61;45.85
22830;BME280;11581;51.250;6.778;2022-10-16T10:17:49;101176.25;;;25.74;44.24
22830;BME280;11581;51.250;6.778;2022-10-16T10:20:27;101172.78;;;25.67;43.04
22830;BME280;11581;51.250;6.778;2022-10-16T10:22:55;101180.63;;;25.63;45.17
22830;BME280;11581;51.250;6.778;2022-10-16T10:25:44;101186.91;;;25.64;43.82
22830;BME280;11581;51.250;6.778;2022-10-16T10:28:30;101192.88;;;25.72;43.71
22830;BME280;11581;51.250;6.778;2022-10-16T10:31:06;101189.53;;;25.82;43.86
22830;BME280;11581;51.250;6.778;2022-10-16T10:33:40;101195.03;;;25.93;42.47
22830;BME280;11581;51.250;6.778;2022-10-16T10:36:14;101194.94;;;26.12;47.94
22830;BME280;11581;51.250;6.778;2022-10-16T10:38:47;101159.31;;;26.07;44.14
22830;BME280;11581;51.250;6.778;2022-10-16T10:41:33;101202.38;;;26.62;43.63
22830;BME280;11581;51.250;6.778;2022-10-16T10:44:11;101040.66;;;26.19;42.54
22830;BME280;11581;51.250;6.778;2022-10-16T10:46:50;101199.66;;;27.46;41.21
22830;BME280;11581;51.250;6.778;2022-10-16T10:49:32;101190.81;;;27.72;40.87
22830;BME280;11581;51.250;6.778;2022-10-16T10:52:13;101186.41;;;28.04;40.62
22830;BME280;11581;51.250;6.778;2022-10-16T10:54:51;101190.34;;;28.47;40.04
22830;BME280;11581;51.250;6.778;2022-10-16T10:57:27;101194.75;;;28.91;39.72
22830;BME280;11581;51.250;6.778;2022-10-16T11:00:19;101172.31;;;29.20;38.53
22830;BME280;11581;51.250;6.778;2022-10-16T11:02:52;101183.00;;;29.48;38.78
22830;BME280;11581;51.250;6.778;2022-10-16T11:05:35;101200.72;;;29.89;37.00
22830;BME280;11581;51.250;6.778;2022-10-16T11:08:12;101200.94;;;30.19;36.15
22830;BME280;11581;51.250;6.778;2022-10-16T11:10:48;101211.00;;;30.50;36.42
22830;BME280;11581;51.250;6.778;2022-10-16T11:13:23;101158.16;;;30.43;34.86
22830;BME280;11581;51.250;6.778;2022-10-16T11:15:53;101184.25;;;30.92;36.59
22830;BME280;11581;51.250;6.778;2022-10-16T11:18:32;101131.38;;;30.90;35.12
22830;BME280;11581;51.250;6.778;2022-10-16T11:21:04;101128.38;;;31.22;34.73
22830;BME280;11581;51.250;6.778;2022-10-16T11:23:38;101026.44;;;30.87;33.52
22830;BME280;11581;51.250;6.778;2022-10-16T11:26:11;101144.13;;;31.91;33.63
22830;BME280;11581;51.250;6.778;2022-10-16T11:28:42;101202.19;;;32.60;33.26
22830;BME280;11581;51.250;6.778;2022-10-16T11:31:16;101011.25;;;31.69;32.10
22830;BME280;11581;51.250;6.778;2022-10-16T11:33:47;101179.13;;;33.00;31.87
22830;BME280;11581;51.250;6.778;2022-10-16T11:36:23;101208.13;;;33.46;30.42
22830;BME280;11581;51.250;6.778;2022-10-16T11:38:58;101208.59;;;33.58;29.58
22830;BME280;11581;51.250;6.778;2022-10-16T11:41:31;101208.03;;;33.61;29.82
22830;BME280;11581;51.250;6.778;2022-10-16T11:44:15;101183.84;;;33.43;30.49
22830;BME280;11581;51.250;6.778;2022-10-16T11:46:50;101211.09;;;33.59;29.61
22830;BME280;11581;51.250;6.778;2022-10-16T11:49:21;101221.84;;;33.61;30.03
22830;BME280;11581;51.250;6.778;2022-10-16T11:51:56;101077.81;;;32.80;28.60
22830;BME280;11581;51.250;6.778;2022-10-16T11:54:32;101150.44;;;32.96;27.92
22830;BME280;11581;51.250;6.778;2022-10-16T11:57:11;101216.34;;;33.12;28.03
22830;BME280;11581;51.250;6.778;2022-10-16T11:59:44;101217.09;;;32.69;28.97
22830;BME280;11581;51.250;6.778;2022-10-16T12:02:35;101221.06;;;32.23;30.40
22830;BME280;11581;51.250;6.778;2022-10-16T12:05:15;101215.56;;;31.98;30.24
22830;BME280;11581;51.250;6.778;2022-10-16T12:07:50;101213.91;;;31.87;30.24
22830;BME280;11581;51.250;6.778;2022-10-16T12:10:26;101223.84;;;31.83;30.05
22830;BME280;11581;51.250;6.778;2022-10-16T12:12:54;101221.88;;;31.78;31.65
22830;BME280;11581;51.250;6.778;2022-10-16T12:15:24;101133.63;;;31.08;30.86
22830;BME280;11581;51.250;6.778;2022-10-16T12:17:55;101230.16;;;31.63;31.84
22830;BME280;11581;51.250;6.778;2022-10-16T12:20:29;101223.53;;;31.64;30.20
22830;BME280;11581;51.250;6.778;2022-10-16T12:23:00;101224.38;;;31.70;32.01
22830;BME280;11581;51.250;6.778;2022-10-16T12:25:31;101225.75;;;31.77;30.79
22830;BME280;11581;51.250;6.778;2022-10-16T12:28:17;101220.81;;;31.84;31.17
22830;BME280;11581;51.250;6.778;2022-10-16T12:30:53;101227.44;;;31.93;30.66
22830;BME280;11581;51.250;6.778;2022-10-16T12:33:22;101208.66;;;32.00;31.53
22830;BME280;11581;51.250;6.778;2022-10-16T12:35:50;101161.22;;;31.78;31.06
22830;BME280;11581;51.250;6.778;2022-10-16T12:38:19;101150.75;;;31.65;30.80
22830;BME280;11581;51.250;6.778;2022-10-16T12:40:58;101205.09;;;31.95;30.37
22830;BME280;11581;51.250;6.778;2022-10-16T12:43:35;101191.56;;;31.73;30.36
22830;BME280;11581;51.250;6.778;2022-10-16T12:46:05;101224.38;;;31.70;30.78
22830;BME280;11581;51.250;6.778;2022-10-16T12:48:33;101212.22;;;31.51;31.03
22830;BME280;11581;51.250;6.778;2022-10-16T12:51:19;101217.44;;;31.32;30.55
22830;BME280;11581;51.250;6.778;2022-10-16T12:53:58;101210.75;;;31.08;30.30
22830;BME280;11581;51.250;6.778;2022-10-16T12:56:35;101183.84;;;30.59;30.93
22830;BME280;11581;51.250;6.778;2022-10-16T12:59:14;101227.03;;;30.58;30.82
22830;BME280;11581;51.250;6.778;2022-10-16T13:01:58;101224.19;;;30.43;31.80
22830;BME280;11581;51.250;6.778;2022-10-16T13:04:47;101205.97;;;30.32;31.63
22830;BME280;11581;51.250;6.778;2022-10-16T13:07:32;101212.31;;;30.33;31.47
22830;BME280;11581;51.250;6.778;2022-10-16T13:10:12;101159.22;;;29.95;30.80